Pires Coelho — CUPM6 — position and weather

sailwx.info

Track history (hours):
 
Tides and Currents Weather Stations Pressure Air Temp Water Temp Dewpoint Dewpoint Depression Visibility Wind Speed Wind Dir Waves Ship Positions

Pires Coelho

Last reported at 2016-May-25 07:33 UTC. Time now 2016-May-26 18:30 UTC.
Position N 37°45' W 008°58'.

Length 27 m.

Type: Ship. MMSI: 263236000.

Date/timePositionNaut miles runAvg speedWind from/ knotsBaromVisibWave heightAir tempDewpointWater temp
2016-May-25 07:33N 37°45' W 008°58'10 9.6
2016-May-25 06:33N 37°54' W 009°02'9 9.3
2016-May-25 05:33N 37°57' W 009°13'6 1.0
2016-May-24 23:18N 38°02' W 009°09'7 9.9
2016-May-24 22:33N 37°59' W 009°00'7 6.4
2016-May-24 21:31N 37°57' W 008°52'0 0.0
2016-May-24 20:32N 37°57' W 008°52'0 0.0
2016-May-24 19:33N 37°57' W 008°52'0 0.0
2016-May-24 18:32N 37°57' W 008°52'2 1.9
2016-May-24 17:33N 37°56' W 008°54'1010.2
2016-May-24 16:33N 37°58' W 009°07'5 0.2
2016-May-23 04:33N 37°53' W 009°09'9 8.8
2016-May-23 03:32N 37°55' W 008°58'5 4.7
2016-May-23 02:32N 37°57' W 008°52'0 0.0
2016-May-23 01:33N 37°57' W 008°52'0 0.0
2016-May-23 00:33N 37°57' W 008°52'0 0.0
2016-May-22 23:32N 37°57' W 008°52'0 0.0
2016-May-22 22:31N 37°57' W 008°52'0 0.0
2016-May-22 21:32N 37°57' W 008°52'0 0.0
2016-May-22 20:32N 37°57' W 008°52'0 0.0
2016-May-22 19:32N 37°57' W 008°52'0 0.0
2016-May-22 18:29N 37°57' W 008°52'0 0.0
2016-May-22 17:31N 37°57' W 008°52'0 0.0
2016-May-22 16:33N 37°57' W 008°52'0 0.5
2016-May-22 15:33N 37°57' W 008°52'9 9.4
2016-May-22 14:33N 37°57' W 009°04'12 1.5
2016-May-22 06:33N 37°49' W 009°15'3 3.2
2016-May-22 05:33N 37°46' W 009°15'5 1.1
2016-May-22 01:20N 37°43' W 009°20'5 2.6
2016-May-21 23:33N 37°39' W 009°16'17 0.7
2016-May-21 00:12N 37°26' W 009°30'25 4.4
2016-May-20 18:32N 37°02' W 009°19'10 9.2
2016-May-20 17:28N 36°54' W 009°12'17 1.5
2016-May-20 06:27N 36°49' W 008°51'3 3.1
2016-May-20 05:25N 36°52' W 008°51'9 8.0
2016-May-20 04:21N 36°58' W 008°43'810.0
2016-May-20 03:32N 37°03' W 008°36'17 1.2
2016-May-19 13:21N 36°48' W 008°26'2 2.4
2016-May-19 12:33N 36°48' W 008°23'3 3.0
2016-May-19 11:33N 36°48' W 008°19'1 1.1
2016-May-19 10:33N 36°47' W 008°18'3 2.9
2016-May-19 09:33N 36°47' W 008°22'4 3.0
2016-May-19 08:17N 36°48' W 008°27'2 2.9
2016-May-19 07:33N 36°48' W 008°29'4 0.5
2016-May-18 23:15N 36°47' W 008°34'14 2.4
2016-May-18 17:33N 36°48' W 008°52'3 2.9
2016-May-18 16:32N 36°48' W 008°55'79 2.7
2016-May-17 11:11N 38°02' W 009°29'14 1.3
2016-May-17 00:04N 38°03' W 009°11'5 9.9
2016-May-16 23:33N 38°01' W 009°05'10 9.8
2016-May-16 22:33N 37°56' W 008°54'2 1.9
2016-May-16 21:31N 37°57' W 008°52'0 0.0
2016-May-16 20:31N 37°57' W 008°52'0 0.0
2016-May-16 19:33N 37°57' W 008°52'0 0.0
2016-May-16 18:28N 37°57' W 008°52'0 0.1
2016-May-16 17:32N 37°57' W 008°52'4 4.2
2016-May-16 16:33N 37°56' W 008°57'9 9.4
2016-May-16 15:33N 37°59' W 009°08'3 0.2
2016-May-16 00:33N 38°02' W 009°10'9 9.5
2016-May-15 23:33N 37°58' W 008°59'5 5.3
2016-May-15 22:34N 37°57' W 008°52'0 0.0
2016-May-15 21:29N 37°57' W 008°52'0 0.0
2016-May-15 20:34N 37°57' W 008°52'0 0.0
2016-May-15 19:31N 37°57' W 008°52'0 0.0
2016-May-15 18:33N 37°57' W 008°52'0 0.0
2016-May-15 17:33N 37°57' W 008°52'0 0.1
2016-May-15 16:33N 37°57' W 008°52'9 8.8
2016-May-15 15:33N 37°52' W 009°01'9 9.2
2016-May-15 14:33N 37°47' W 009°11'2 1.7
2016-May-15 13:33N 37°47' W 009°13'3 2.9
2016-May-15 12:33N 37°49' W 009°13'3 2.9
2016-May-15 11:33N 37°52' W 009°13'3 3.0
2016-May-15 10:33N 37°55' W 009°13'3 2.9
2016-May-15 09:33N 37°53' W 009°13'3 2.8
2016-May-15 08:33N 37°50' W 009°14'3 2.8
2016-May-15 07:33N 37°47' W 009°15'  
Track history (hours):
 
Tides and Currents Weather Stations Pressure Air Temp Water Temp Dewpoint Dewpoint Depression Visibility Wind Speed Wind Dir Waves Ship Positions

Pires Coelho

Last reported at 2016-May-25 07:33 UTC. Time now 2016-May-26 18:30 UTC.
Position N 37°45' W 008°58'.

Length 27 m.

Type: Ship. MMSI: 263236000.

Date/timePositionNaut miles runAvg speedWind from/ knotsBaromVisibWave heightAir tempDewpointWater temp
2016-May-25 07:33N 37°45' W 008°58'10 9.6
2016-May-25 06:33N 37°54' W 009°02'9 9.3
2016-May-25 05:33N 37°57' W 009°13'6 1.0
2016-May-24 23:18N 38°02' W 009°09'7 9.9
2016-May-24 22:33N 37°59' W 009°00'7 6.4
2016-May-24 21:31N 37°57' W 008°52'0 0.0
2016-May-24 20:32N 37°57' W 008°52'0 0.0
2016-May-24 19:33N 37°57' W 008°52'0 0.0
2016-May-24 18:32N 37°57' W 008°52'2 1.9
2016-May-24 17:33N 37°56' W 008°54'1010.2
2016-May-24 16:33N 37°58' W 009°07'5 0.2
2016-May-23 04:33N 37°53' W 009°09'9 8.8
2016-May-23 03:32N 37°55' W 008°58'5 4.7
2016-May-23 02:32N 37°57' W 008°52'0 0.0
2016-May-23 01:33N 37°57' W 008°52'0 0.0
2016-May-23 00:33N 37°57' W 008°52'0 0.0
2016-May-22 23:32N 37°57' W 008°52'0 0.0
2016-May-22 22:31N 37°57' W 008°52'0 0.0
2016-May-22 21:32N 37°57' W 008°52'0 0.0
2016-May-22 20:32N 37°57' W 008°52'0 0.0
2016-May-22 19:32N 37°57' W 008°52'0 0.0
2016-May-22 18:29N 37°57' W 008°52'0 0.0
2016-May-22 17:31N 37°57' W 008°52'0 0.0
2016-May-22 16:33N 37°57' W 008°52'0 0.5
2016-May-22 15:33N 37°57' W 008°52'9 9.4
2016-May-22 14:33N 37°57' W 009°04'12 1.5
2016-May-22 06:33N 37°49' W 009°15'3 3.2
2016-May-22 05:33N 37°46' W 009°15'5 1.1
2016-May-22 01:20N 37°43' W 009°20'5 2.6
2016-May-21 23:33N 37°39' W 009°16'17 0.7
2016-May-21 00:12N 37°26' W 009°30'25 4.4
2016-May-20 18:32N 37°02' W 009°19'10 9.2
2016-May-20 17:28N 36°54' W 009°12'17 1.5
2016-May-20 06:27N 36°49' W 008°51'3 3.1
2016-May-20 05:25N 36°52' W 008°51'9 8.0
2016-May-20 04:21N 36°58' W 008°43'810.0
2016-May-20 03:32N 37°03' W 008°36'17 1.2
2016-May-19 13:21N 36°48' W 008°26'2 2.4
2016-May-19 12:33N 36°48' W 008°23'3 3.0
2016-May-19 11:33N 36°48' W 008°19'1 1.1
2016-May-19 10:33N 36°47' W 008°18'3 2.9
2016-May-19 09:33N 36°47' W 008°22'4 3.0
2016-May-19 08:17N 36°48' W 008°27'2 2.9
2016-May-19 07:33N 36°48' W 008°29'4 0.5
2016-May-18 23:15N 36°47' W 008°34'14 2.4
2016-May-18 17:33N 36°48' W 008°52'3 2.9
2016-May-18 16:32N 36°48' W 008°55'79 2.7
2016-May-17 11:11N 38°02' W 009°29'14 1.3
2016-May-17 00:04N 38°03' W 009°11'5 9.9
2016-May-16 23:33N 38°01' W 009°05'10 9.8
2016-May-16 22:33N 37°56' W 008°54'2 1.9
2016-May-16 21:31N 37°57' W 008°52'0 0.0
2016-May-16 20:31N 37°57' W 008°52'0 0.0
2016-May-16 19:33N 37°57' W 008°52'0 0.0
2016-May-16 18:28N 37°57' W 008°52'0 0.1
2016-May-16 17:32N 37°57' W 008°52'4 4.2
2016-May-16 16:33N 37°56' W 008°57'9 9.4
2016-May-16 15:33N 37°59' W 009°08'3 0.2
2016-May-16 00:33N 38°02' W 009°10'9 9.5
2016-May-15 23:33N 37°58' W 008°59'5 5.3
2016-May-15 22:34N 37°57' W 008°52'0 0.0
2016-May-15 21:29N 37°57' W 008°52'0 0.0
2016-May-15 20:34N 37°57' W 008°52'0 0.0
2016-May-15 19:31N 37°57' W 008°52'0 0.0
2016-May-15 18:33N 37°57' W 008°52'0 0.0
2016-May-15 17:33N 37°57' W 008°52'0 0.1
2016-May-15 16:33N 37°57' W 008°52'9 8.8
2016-May-15 15:33N 37°52' W 009°01'9 9.2
2016-May-15 14:33N 37°47' W 009°11'2 1.7
2016-May-15 13:33N 37°47' W 009°13'3 2.9
2016-May-15 12:33N 37°49' W 009°13'3 2.9
2016-May-15 11:33N 37°52' W 009°13'3 3.0
2016-May-15 10:33N 37°55' W 009°13'3 2.9
2016-May-15 09:33N 37°53' W 009°13'3 2.8
2016-May-15 08:33N 37°50' W 009°14'3 2.8
2016-May-15 07:33N 37°47' W 009°15'  

Dump ship's entire track history